createdAt,value
2023-01-12T00:02:15.246Z,7.60
2023-01-12T00:04:43.622Z,7.50
2023-01-12T00:07:14.645Z,7.40
2023-01-12T00:09:42.774Z,7.40
2023-01-12T00:12:12.909Z,7.40
2023-01-12T00:14:41.231Z,7.40
2023-01-12T00:17:11.771Z,7.40
2023-01-12T00:19:40.170Z,7.40
2023-01-12T00:22:11.996Z,7.30
2023-01-12T00:24:44.000Z,7.40
2023-01-12T00:27:14.586Z,7.40
2023-01-12T00:29:42.830Z,7.30
2023-01-12T00:32:13.483Z,7.40
2023-01-12T00:34:41.511Z,7.50
2023-01-12T00:37:10.157Z,7.40
2023-01-12T00:39:43.015Z,7.40
2023-01-12T00:42:32.491Z,7.40
2023-01-12T00:45:17.861Z,7.50
2023-01-12T00:47:45.905Z,7.40
2023-01-12T00:50:13.964Z,7.40
2023-01-12T00:52:42.310Z,7.40
2023-01-12T00:55:10.627Z,7.40
2023-01-12T00:57:40.215Z,7.50
2023-01-12T01:00:11.050Z,7.40
2023-01-12T01:02:39.166Z,7.50
2023-01-12T01:05:07.914Z,7.40
2023-01-12T01:07:36.025Z,7.30
2023-01-12T01:10:04.093Z,7.40
2023-01-12T01:12:32.182Z,7.40
2023-01-12T01:15:01.712Z,7.40
2023-01-12T01:17:30.015Z,7.40
2023-01-12T01:19:58.033Z,7.40
2023-01-12T01:22:26.038Z,7.30
2023-01-12T01:24:54.194Z,7.40
2023-01-12T01:27:22.372Z,7.40
2023-01-12T01:29:50.451Z,7.40
2023-01-12T01:32:19.941Z,7.40
2023-01-12T01:34:48.271Z,7.40
2023-01-12T01:37:16.814Z,7.40
2023-01-12T01:39:44.931Z,7.40
2023-01-12T01:42:28.079Z,7.50
2023-01-12T01:44:58.576Z,7.40
2023-01-12T01:47:35.989Z,7.40
2023-01-12T01:50:13.403Z,7.40
2023-01-12T01:52:45.575Z,7.40
2023-01-12T01:55:17.949Z,7.40
2023-01-12T01:57:49.490Z,7.50
2023-01-12T02:00:18.778Z,7.60
2023-01-12T02:02:49.746Z,7.60
2023-01-12T02:05:20.618Z,7.60
2023-01-12T02:07:49.562Z,7.60
2023-01-12T02:10:18.742Z,7.60
2023-01-12T02:13:04.789Z,7.50
2023-01-12T02:15:57.494Z,7.60
2023-01-12T02:18:31.049Z,7.60
2023-01-12T02:21:12.413Z,7.50
2023-01-12T02:24:24.614Z,7.60
2023-01-12T02:27:33.213Z,7.50
2023-01-12T02:30:40.264Z,7.50
2023-01-12T02:33:31.581Z,7.50
2023-01-12T02:36:06.384Z,7.50
2023-01-12T02:38:39.132Z,7.60
2023-01-12T02:41:19.734Z,7.50
2023-01-12T02:43:46.806Z,7.50
2023-01-12T02:46:21.324Z,7.50
2023-01-12T02:48:55.759Z,7.50
2023-01-12T02:51:32.147Z,7.40
2023-01-12T02:54:03.632Z,7.40
2023-01-12T02:56:34.211Z,7.40
2023-01-12T02:59:08.524Z,7.40
2023-01-12T03:01:38.553Z,7.50
2023-01-12T03:04:10.154Z,7.50
2023-01-12T03:06:41.939Z,7.50
2023-01-12T03:09:10.918Z,7.50
2023-01-12T03:11:41.539Z,7.50
2023-01-12T03:14:12.828Z,7.50
2023-01-12T03:16:42.099Z,7.50
2023-01-12T03:19:15.323Z,7.50
2023-01-12T03:21:49.329Z,7.60
2023-01-12T03:24:20.860Z,7.50
2023-01-12T03:26:52.224Z,7.50
2023-01-12T03:29:24.892Z,7.50
2023-01-12T03:31:53.335Z,7.60
2023-01-12T03:34:22.911Z,7.50
2023-01-12T03:36:58.548Z,7.40
2023-01-12T03:39:34.403Z,7.50
2023-01-12T03:42:11.084Z,7.50
2023-01-12T03:44:42.997Z,7.50
2023-01-12T03:47:14.504Z,7.50
2023-01-12T03:49:48.874Z,7.60
2023-01-12T03:52:19.036Z,7.50
2023-01-12T03:54:48.947Z,7.60
2023-01-12T03:57:17.917Z,7.60
2023-01-12T03:59:45.946Z,7.50
2023-01-12T04:02:14.474Z,7.60
2023-01-12T04:04:43.922Z,7.50
2023-01-12T04:07:11.923Z,7.50
2023-01-12T04:09:39.968Z,7.60
2023-01-12T04:12:14.069Z,7.60
2023-01-12T04:14:46.848Z,7.60
2023-01-12T04:17:16.404Z,7.60
2023-01-12T04:19:45.916Z,7.60
2023-01-12T04:22:34.583Z,7.60
2023-01-12T04:25:02.720Z,7.50
2023-01-12T04:27:30.860Z,7.60
2023-01-12T04:29:58.920Z,7.50
2023-01-12T04:32:27.029Z,7.50
2023-01-12T04:34:56.492Z,7.60
2023-01-12T04:37:24.631Z,7.50
2023-01-12T04:39:52.789Z,7.60
2023-01-12T04:42:38.330Z,7.60
2023-01-12T04:45:07.288Z,7.60
2023-01-12T04:47:35.810Z,7.60
2023-01-12T04:50:06.037Z,7.70
2023-01-12T04:52:34.243Z,7.60
2023-01-12T04:55:02.282Z,7.60
2023-01-12T04:57:30.951Z,7.50
2023-01-12T04:59:59.159Z,7.50
2023-01-12T05:02:28.321Z,7.50
2023-01-12T05:04:56.415Z,7.60
2023-01-12T05:07:25.787Z,7.60
2023-01-12T05:10:11.024Z,7.60
2023-01-12T05:12:39.037Z,7.70
2023-01-12T05:15:08.232Z,7.60
2023-01-12T05:17:36.260Z,7.60
2023-01-12T05:20:04.711Z,7.60
2023-01-12T05:22:34.154Z,7.60
2023-01-12T05:25:02.219Z,7.60
2023-01-12T05:27:30.309Z,7.80
2023-01-12T05:29:59.676Z,7.60
2023-01-12T05:32:27.936Z,7.70
2023-01-12T05:34:56.054Z,7.70
2023-01-12T05:37:24.179Z,7.70
2023-01-12T05:39:53.592Z,7.70
2023-01-12T05:42:39.119Z,7.70
2023-01-12T05:45:08.366Z,7.70
2023-01-12T05:47:36.345Z,7.70
2023-01-12T05:50:04.713Z,7.60
2023-01-12T05:52:32.839Z,7.70
2023-01-12T05:55:02.354Z,7.70
2023-01-12T05:57:31.215Z,7.80
2023-01-12T05:59:59.257Z,7.80
2023-01-12T06:02:28.736Z,7.80
2023-01-12T06:04:56.962Z,7.80
2023-01-12T06:07:25.107Z,7.70
2023-01-12T06:09:53.256Z,7.70
2023-01-12T06:12:40.045Z,7.60
2023-01-12T06:15:08.961Z,7.60
2023-01-12T06:17:37.067Z,7.60
2023-01-12T06:20:06.353Z,7.60
2023-01-12T06:22:34.527Z,7.60
2023-01-12T06:25:02.731Z,7.60
2023-01-12T06:27:35.498Z,7.70
2023-01-12T06:30:03.665Z,7.70
2023-01-12T06:32:33.510Z,7.70
2023-01-12T06:35:14.087Z,7.70
2023-01-12T06:37:46.687Z,7.70
2023-01-12T06:40:15.093Z,7.50
2023-01-12T06:42:44.545Z,7.70
2023-01-12T06:45:12.748Z,7.60
2023-01-12T06:47:48.707Z,7.50
2023-01-12T06:50:17.409Z,7.50
2023-01-12T06:52:46.586Z,7.50
2023-01-12T06:55:14.766Z,7.60
2023-01-12T06:57:44.223Z,7.60
2023-01-12T07:00:13.951Z,7.60
2023-01-12T07:02:42.108Z,7.60
2023-01-12T07:05:10.503Z,7.60
2023-01-12T07:07:40.280Z,7.70
2023-01-12T07:10:09.195Z,7.60
2023-01-12T07:12:37.255Z,7.70
2023-01-12T07:15:08.128Z,7.70
2023-01-12T07:17:36.274Z,7.70
2023-01-12T07:20:04.483Z,7.70
2023-01-12T07:22:32.591Z,7.60
2023-01-12T07:25:00.972Z,7.60
2023-01-12T07:27:29.035Z,7.70
2023-01-12T07:29:57.080Z,7.70
2023-01-12T07:32:29.563Z,7.80
2023-01-12T07:34:57.768Z,7.70
2023-01-12T07:37:25.765Z,7.80
2023-01-12T07:39:53.828Z,7.70
2023-01-12T07:42:24.541Z,7.80
2023-01-12T07:44:52.999Z,7.80
2023-01-12T07:47:21.477Z,7.80
2023-01-12T07:49:51.191Z,7.80
2023-01-12T07:52:19.415Z,7.70
2023-01-12T07:54:47.705Z,7.80
2023-01-12T07:57:15.860Z,7.90
2023-01-12T07:59:43.917Z,7.90
2023-01-12T08:02:16.472Z,7.90
2023-01-12T08:04:44.743Z,7.80
2023-01-12T08:07:15.213Z,7.90
2023-01-12T08:09:43.506Z,7.90
2023-01-12T08:12:11.615Z,8.00
2023-01-12T08:14:42.188Z,8.00
2023-01-12T08:17:15.031Z,7.90
2023-01-12T08:19:49.151Z,7.90
2023-01-12T08:22:24.245Z,7.90
2023-01-12T08:24:58.029Z,8.00
2023-01-12T08:27:28.835Z,7.80
2023-01-12T08:29:58.804Z,7.80
2023-01-12T08:32:28.933Z,7.90
2023-01-12T08:35:01.732Z,8.00
2023-01-12T08:37:33.039Z,8.10
2023-01-12T08:40:01.611Z,7.90
2023-01-12T08:42:31.865Z,8.00
2023-01-12T08:45:00.301Z,8.00
2023-01-12T08:47:30.616Z,7.90
2023-01-12T08:50:00.449Z,7.90
2023-01-12T08:52:31.760Z,7.90
2023-01-12T08:55:01.167Z,7.90
2023-01-12T08:57:29.229Z,7.90
2023-01-12T08:59:57.808Z,7.90
2023-01-12T09:02:27.150Z,7.90
2023-01-12T09:04:55.560Z,7.90
2023-01-12T09:07:23.833Z,7.90
2023-01-12T09:09:51.921Z,7.90
2023-01-12T09:12:23.532Z,7.90
2023-01-12T09:14:53.718Z,7.90
2023-01-12T09:17:22.975Z,7.90
2023-01-12T09:19:51.562Z,8.00
2023-01-12T09:22:19.634Z,8.00
2023-01-12T09:24:47.707Z,8.00
2023-01-12T09:27:15.738Z,8.00
2023-01-12T09:29:45.162Z,8.10
2023-01-12T09:32:13.211Z,8.10
2023-01-12T09:34:41.304Z,8.10
2023-01-12T09:37:09.504Z,8.10
2023-01-12T09:39:37.743Z,8.20
2023-01-12T09:42:25.063Z,8.20
2023-01-12T09:45:11.886Z,8.20
2023-01-12T09:47:49.085Z,8.30
2023-01-12T09:50:21.876Z,8.20
2023-01-12T09:52:54.915Z,8.30
2023-01-12T09:55:25.084Z,8.30
2023-01-12T09:58:22.198Z,8.30
2023-01-12T10:00:55.300Z,8.30
2023-01-12T10:03:29.836Z,8.40
2023-01-12T10:06:00.594Z,8.30
2023-01-12T10:08:35.909Z,8.30
2023-01-12T10:11:18.383Z,8.40
2023-01-12T10:14:23.111Z,8.40
2023-01-12T10:17:03.880Z,8.40
2023-01-12T10:19:41.988Z,8.50
2023-01-12T10:22:36.791Z,8.40
2023-01-12T10:25:25.485Z,8.40
2023-01-12T10:27:55.183Z,8.40
2023-01-12T10:30:29.460Z,8.40
2023-01-12T10:32:59.558Z,8.40
2023-01-12T10:35:28.017Z,8.50
2023-01-12T10:37:57.501Z,8.50
2023-01-12T10:40:30.148Z,8.50
2023-01-12T10:43:21.905Z,8.50
2023-01-12T10:46:06.242Z,8.60
2023-01-12T10:48:36.470Z,8.50
2023-01-12T10:51:07.629Z,8.60
2023-01-12T10:53:44.794Z,8.70
2023-01-12T10:56:24.274Z,8.70
2023-01-12T10:58:55.643Z,8.70
2023-01-12T11:01:24.177Z,8.70
2023-01-12T11:04:05.886Z,8.60
2023-01-12T11:06:33.967Z,8.60
2023-01-12T11:09:19.589Z,8.60
2023-01-12T11:11:47.975Z,8.70
2023-01-12T11:14:32.497Z,8.80
2023-01-12T11:17:28.074Z,8.70
2023-01-12T11:20:01.039Z,8.70
2023-01-12T11:22:32.549Z,8.80
2023-01-12T11:25:05.109Z,8.80
2023-01-12T11:27:40.689Z,8.80
2023-01-12T11:30:18.827Z,8.90
2023-01-12T11:32:52.215Z,8.90
2023-01-12T11:35:30.989Z,8.90
2023-01-12T11:38:02.663Z,8.90
2023-01-12T11:40:34.079Z,8.80
2023-01-12T11:43:29.619Z,8.90
2023-01-12T11:46:05.556Z,8.90
2023-01-12T11:48:40.185Z,8.90
2023-01-12T11:51:17.160Z,8.90
2023-01-12T11:53:46.649Z,8.90
2023-01-12T11:56:50.760Z,8.80
2023-01-12T11:59:24.714Z,8.90
2023-01-12T12:02:00.718Z,8.80
2023-01-12T12:04:45.343Z,8.80
2023-01-12T12:07:27.269Z,8.80
2023-01-12T12:10:27.873Z,8.80
2023-01-12T12:13:17.108Z,8.80
2023-01-12T12:15:54.650Z,8.90
2023-01-12T12:18:38.836Z,8.90
2023-01-12T12:21:17.777Z,9.00
2023-01-12T12:23:59.756Z,9.00
2023-01-12T12:26:32.185Z,9.00
2023-01-12T12:29:15.049Z,9.00
2023-01-12T12:32:12.644Z,9.10
2023-01-12T12:35:01.135Z,9.00
2023-01-12T12:37:42.343Z,9.10
2023-01-12T12:40:23.467Z,9.00
2023-01-12T12:43:18.871Z,9.10
2023-01-12T12:45:54.786Z,9.10
2023-01-12T12:48:31.411Z,9.10
2023-01-12T12:51:04.131Z,9.10
2023-01-12T12:53:35.816Z,9.10
2023-01-12T12:56:08.427Z,9.20
2023-01-12T12:58:44.824Z,9.20
2023-01-12T13:02:01.028Z,9.20
2023-01-12T13:05:04.866Z,9.10
2023-01-12T13:07:37.738Z,9.20
2023-01-12T13:10:30.528Z,9.20
2023-01-12T13:13:24.178Z,9.20
2023-01-12T13:15:52.592Z,9.10
2023-01-12T13:18:43.070Z,9.10
2023-01-12T13:21:29.990Z,9.10
2023-01-12T13:24:23.739Z,9.10
2023-01-12T13:26:54.016Z,9.10
2023-01-12T13:29:44.245Z,9.20
2023-01-12T13:32:41.511Z,9.20
2023-01-12T13:35:48.971Z,9.20
2023-01-12T13:38:21.270Z,9.20
2023-01-12T13:40:56.058Z,9.10
2023-01-12T13:43:27.532Z,9.10
2023-01-12T13:45:59.801Z,9.10
2023-01-12T13:48:30.231Z,9.10
2023-01-12T13:51:02.342Z,9.10
2023-01-12T13:53:32.696Z,9.10
2023-01-12T13:56:03.316Z,9.10
2023-01-12T13:58:39.593Z,9.10
2023-01-12T14:01:18.940Z,9.20
2023-01-12T14:04:02.370Z,9.20
2023-01-12T14:06:41.463Z,9.10
2023-01-12T14:09:19.411Z,9.10
2023-01-12T14:12:21.258Z,9.10
2023-01-12T14:15:39.123Z,9.10
2023-01-12T14:18:11.129Z,9.20
2023-01-12T14:20:47.327Z,9.20
2023-01-12T14:23:22.168Z,9.10
2023-01-12T14:26:06.334Z,9.10
2023-01-12T14:28:35.033Z,9.10
2023-01-12T14:31:04.037Z,9.00
2023-01-12T14:33:35.465Z,9.10
2023-01-12T14:36:06.688Z,9.00
2023-01-12T14:38:35.828Z,9.10
2023-01-12T14:41:06.746Z,9.10
2023-01-12T14:44:09.122Z,9.10
2023-01-12T14:46:48.592Z,9.10
2023-01-12T14:49:23.364Z,9.20
2023-01-12T14:51:55.899Z,9.20
2023-01-12T14:54:28.150Z,9.20
2023-01-12T14:56:59.759Z,9.20
2023-01-12T14:59:30.855Z,9.20
2023-01-12T15:02:25.635Z,9.20
2023-01-12T15:04:57.676Z,9.10
2023-01-12T15:07:27.782Z,9.10
2023-01-12T15:09:57.834Z,9.10
2023-01-12T15:12:40.864Z,9.10
2023-01-12T15:15:21.166Z,9.10
2023-01-12T15:18:08.210Z,9.10
2023-01-12T15:20:58.406Z,9.00
2023-01-12T15:23:47.407Z,9.00
2023-01-12T15:26:15.526Z,9.00
2023-01-12T15:28:44.784Z,9.10
2023-01-12T15:31:19.934Z,9.00
2023-01-12T15:33:48.612Z,9.00
2023-01-12T15:36:18.209Z,9.00
2023-01-12T15:38:46.261Z,9.00
2023-01-12T15:41:18.590Z,9.10
2023-01-12T15:43:47.107Z,9.10
2023-01-12T15:46:20.070Z,9.00
2023-01-12T15:48:48.169Z,8.90
2023-01-12T15:51:17.678Z,8.90
2023-01-12T15:53:45.805Z,8.90
2023-01-12T15:56:16.267Z,9.00
2023-01-12T15:58:44.567Z,9.00
2023-01-12T16:01:17.320Z,9.00
2023-01-12T16:04:05.225Z,8.90
2023-01-12T16:06:37.492Z,8.90
2023-01-12T16:09:05.647Z,8.90
2023-01-12T16:11:33.870Z,9.00
2023-01-12T16:14:01.946Z,8.90
2023-01-12T16:16:30.146Z,8.90
2023-01-12T16:18:58.696Z,8.90
2023-01-12T16:21:29.446Z,8.80
2023-01-12T16:23:59.035Z,8.80
2023-01-12T16:26:28.686Z,8.80
2023-01-12T16:28:58.378Z,8.90
2023-01-12T16:31:27.880Z,8.80
2023-01-12T16:33:56.421Z,8.90
2023-01-12T16:36:25.182Z,8.90
2023-01-12T16:38:53.352Z,8.90
2023-01-12T16:41:23.034Z,8.90
2023-01-12T16:43:51.709Z,8.80
2023-01-12T16:46:23.099Z,8.80
2023-01-12T16:48:52.640Z,8.90
2023-01-12T16:51:20.850Z,8.90
2023-01-12T16:53:49.050Z,8.90
2023-01-12T16:56:18.053Z,8.90
2023-01-12T16:58:48.860Z,8.90
2023-01-12T17:01:21.601Z,8.90
2023-01-12T17:03:53.748Z,9.00
2023-01-12T17:06:23.076Z,8.90
2023-01-12T17:08:51.567Z,8.90
2023-01-12T17:11:20.872Z,9.00
2023-01-12T17:13:54.420Z,8.90
2023-01-12T17:16:23.937Z,9.00
2023-01-12T17:18:52.628Z,8.90
2023-01-12T17:21:21.971Z,9.00
2023-01-12T17:23:50.537Z,9.00
2023-01-12T17:26:19.569Z,9.00
2023-01-12T17:28:48.509Z,9.00
2023-01-12T17:31:20.549Z,9.00
2023-01-12T17:33:50.148Z,9.00
2023-01-12T17:36:19.074Z,9.10
2023-01-12T17:38:47.305Z,9.10
2023-01-12T17:41:31.463Z,9.10
2023-01-12T17:44:00.059Z,9.10
2023-01-12T17:46:29.754Z,9.10
2023-01-12T17:48:59.850Z,9.10
2023-01-12T17:51:28.101Z,9.10
2023-01-12T17:53:56.559Z,9.10
2023-01-12T17:56:25.006Z,9.00
2023-01-12T17:58:53.849Z,9.00
2023-01-12T18:01:25.350Z,9.10
2023-01-12T18:03:56.164Z,9.10
2023-01-12T18:06:27.678Z,9.10
2023-01-12T18:08:59.486Z,9.10
2023-01-12T18:11:29.054Z,9.10
2023-01-12T18:13:57.763Z,9.10
2023-01-12T18:16:27.486Z,9.00
2023-01-12T18:18:57.645Z,9.10
2023-01-12T18:21:28.501Z,9.10
2023-01-12T18:23:58.097Z,9.10
2023-01-12T18:26:29.167Z,9.10
2023-01-12T18:28:59.099Z,9.10
2023-01-12T18:31:31.398Z,9.20
2023-01-12T18:34:04.856Z,9.20
2023-01-12T18:36:34.859Z,9.20
2023-01-12T18:39:03.368Z,9.20
2023-01-12T18:41:49.000Z,9.20
2023-01-12T18:44:17.368Z,9.10
2023-01-12T18:47:03.424Z,9.10
2023-01-12T18:49:35.318Z,9.10
2023-01-12T18:52:21.956Z,9.20
2023-01-12T18:54:53.246Z,9.20
2023-01-12T18:57:23.924Z,9.20
2023-01-12T18:59:53.371Z,9.20
2023-01-12T19:02:22.053Z,9.20
2023-01-12T19:05:13.409Z,9.30
2023-01-12T19:08:02.096Z,9.20
2023-01-12T19:10:32.125Z,9.20
2023-01-12T19:13:18.086Z,9.20
2023-01-12T19:16:04.002Z,9.30
2023-01-12T19:18:32.151Z,9.30
2023-01-12T19:21:18.456Z,9.30
2023-01-12T19:24:03.713Z,9.30
2023-01-12T19:26:49.386Z,9.30
2023-01-12T19:29:17.562Z,9.30
2023-01-12T19:31:45.696Z,9.30
2023-01-12T19:34:13.806Z,9.20
2023-01-12T19:36:43.189Z,9.30
2023-01-12T19:39:11.539Z,9.40
2023-01-12T19:41:56.866Z,9.30
2023-01-12T19:44:24.945Z,9.30
2023-01-12T19:46:53.118Z,9.30
2023-01-12T19:49:21.345Z,9.30
2023-01-12T19:51:50.878Z,9.30
2023-01-12T19:54:18.997Z,9.30
2023-01-12T19:56:47.977Z,9.30
2023-01-12T19:59:16.125Z,9.30
2023-01-12T20:01:44.312Z,9.30
2023-01-12T20:04:12.437Z,9.30
2023-01-12T20:06:40.495Z,9.40
2023-01-12T20:09:09.964Z,9.40
2023-01-12T20:11:38.193Z,9.40
2023-01-12T20:14:06.303Z,9.30
2023-01-12T20:16:34.658Z,9.40
2023-01-12T20:19:04.042Z,9.40
2023-01-12T20:21:32.175Z,9.40
2023-01-12T20:24:01.576Z,9.30
2023-01-12T20:26:31.140Z,9.30
2023-01-12T20:29:00.646Z,9.40
2023-01-12T20:31:29.215Z,9.40
2023-01-12T20:33:57.394Z,9.40
2023-01-12T20:36:26.057Z,9.30
2023-01-12T20:38:54.351Z,9.40
2023-01-12T20:41:23.114Z,9.30
2023-01-12T20:43:52.609Z,9.30
2023-01-12T20:46:20.754Z,9.30
2023-01-12T20:48:49.014Z,9.30
2023-01-12T20:51:18.107Z,9.40
2023-01-12T20:53:46.151Z,9.40
2023-01-12T20:56:14.259Z,9.40
2023-01-12T20:58:42.289Z,9.30
2023-01-12T21:01:14.256Z,9.30
2023-01-12T21:03:43.159Z,9.30
2023-01-12T21:06:12.933Z,9.30
2023-01-12T21:08:43.224Z,9.30
2023-01-12T21:11:12.188Z,9.30
2023-01-12T21:13:40.372Z,9.30
2023-01-12T21:16:13.103Z,9.30
2023-01-12T21:18:41.889Z,9.30
2023-01-12T21:21:10.392Z,9.30
2023-01-12T21:23:38.973Z,9.30
2023-01-12T21:26:08.206Z,9.30
2023-01-12T21:28:38.663Z,9.30
2023-01-12T21:31:09.404Z,9.20
2023-01-12T21:33:38.873Z,9.30
2023-01-12T21:36:08.024Z,9.30
2023-01-12T21:38:36.212Z,9.30
2023-01-12T21:41:07.059Z,9.30
2023-01-12T21:43:34.191Z,9.30
2023-01-12T21:46:06.558Z,9.30
2023-01-12T21:48:34.970Z,9.30
2023-01-12T21:51:05.603Z,9.30
2023-01-12T21:53:33.885Z,9.30
2023-01-12T21:56:04.807Z,9.40
2023-01-12T21:58:35.211Z,9.40
2023-01-12T22:01:08.678Z,9.40
2023-01-12T22:03:37.145Z,9.30
2023-01-12T22:06:08.821Z,9.40
2023-01-12T22:08:37.650Z,9.40
2023-01-12T22:11:07.369Z,9.40
2023-01-12T22:13:35.778Z,9.40
2023-01-12T22:16:05.419Z,9.30
2023-01-12T22:18:34.670Z,9.30
2023-01-12T22:21:03.822Z,9.30
2023-01-12T22:23:33.916Z,9.40
2023-01-12T22:26:03.459Z,9.40
2023-01-12T22:28:33.728Z,9.30
2023-01-12T22:31:08.152Z,9.40
2023-01-12T22:33:36.262Z,9.40
2023-01-12T22:36:04.926Z,9.50
2023-01-12T22:38:34.851Z,9.40
2023-01-12T22:41:07.490Z,9.40
2023-01-12T22:43:40.560Z,9.50
2023-01-12T22:46:15.915Z,9.60
2023-01-12T22:48:44.105Z,9.60
2023-01-12T22:51:12.427Z,9.50
2023-01-12T22:53:41.896Z,9.50
2023-01-12T22:56:11.617Z,9.40
2023-01-12T22:58:40.107Z,9.40
2023-01-12T23:01:09.895Z,9.40
2023-01-12T23:03:38.706Z,9.40
2023-01-12T23:06:07.528Z,9.50
2023-01-12T23:08:35.641Z,9.50
2023-01-12T23:11:06.432Z,9.50
2023-01-12T23:13:34.785Z,9.50
2023-01-12T23:16:05.068Z,9.40
2023-01-12T23:18:34.842Z,9.40
2023-01-12T23:21:09.796Z,9.40
2023-01-12T23:23:38.109Z,9.40
2023-01-12T23:26:09.669Z,9.40
2023-01-12T23:28:38.882Z,9.50
2023-01-12T23:31:08.577Z,9.40
2023-01-12T23:33:37.687Z,9.40
2023-01-12T23:36:08.059Z,9.40
2023-01-12T23:38:36.474Z,9.40
2023-01-12T23:41:13.253Z,9.50
2023-01-12T23:43:41.524Z,9.40
2023-01-12T23:46:10.433Z,9.50
2023-01-12T23:48:38.501Z,9.50
2023-01-12T23:51:06.857Z,9.50
2023-01-12T23:53:34.862Z,9.40
2023-01-12T23:56:06.930Z,9.40
2023-01-12T23:58:36.734Z,9.40
